Polar Ranger — WDC8652 — position and weather

sailwx.info

Track history (hours):
 
Tides and Currents Weather Stations Pressure Air Temp Water Temp Dewpoint Dewpoint Depression Visibility Wind Speed Wind Dir Waves Ship Positions

Polar Ranger

Owner: Dunlap Towing Co., LaConner, WA. More information available from US FCC via Universal Licensing System and Coast Guard Vessel Documentation Center.

Last reported at 2015-Jul-12 01:31 UTC. Time now 2015-Jul-31 13:27 UTC.
Position N 49°23' W 126°57'.
Warning: this ship's position is 19 days out of date.

Type: Tow > 200 m length. MMSI: 367090860.

Date/timePositionNaut miles runAvg speedWind from/ knotsBaromVisibWave heightAir tempDewpointWater temp
2015-Jul-12 01:31N 49°23' W 126°57'10 9.7
2015-Jul-12 00:32N 49°17' W 126°45'1010.1
2015-Jul-11 23:31N 49°10' W 126°33'1010.4
2015-Jul-11 22:32N 49°04' W 126°20'1010.5
2015-Jul-11 21:33N 48°58' W 126°08'1010.4
2015-Jul-11 20:33N 48°52' W 125°55'1010.0
2015-Jul-11 19:33N 48°46' W 125°43'10 9.7
2015-Jul-11 18:33N 48°42' W 125°29'10 9.7
2015-Jul-11 17:29N 48°38' W 125°15'9 9.8
2015-Jul-11 16:31N 48°35' W 125°02'9 9.5
2015-Jul-11 15:33N 48°32' W 124°48'1010.4
2015-Jul-11 14:33N 48°28' W 124°34'1111.0
2015-Jul-11 13:33N 48°24' W 124°18'1111.3
2015-Jul-11 12:33N 48°20' W 124°03'1110.4
2015-Jul-11 11:31N 48°17' W 123°47'1212.0
2015-Jul-11 10:33N 48°15' W 123°30'1111.3
2015-Jul-11 09:33N 48°13' W 123°13'1010.4
2015-Jul-11 08:33N 48°12' W 122°58'17 8.3
2015-Jul-11 06:32N 48°02' W 122°38'8 8.5
2015-Jul-11 05:33N 47°56' W 122°30'10 9.6
2015-Jul-11 04:33N 47°47' W 122°26'9 9.1
2015-Jul-11 03:33N 47°38' W 122°24'2 2.5
2015-Jul-11 02:33N 47°36' W 122°22'1 0.6
2015-Jul-11 01:33N 47°35' W 122°21'0 0.0
2015-Jul-11 00:33N 47°35' W 122°21'0 0.0
2015-Jul-10 23:33N 47°35' W 122°21'0 0.0
2015-Jul-10 22:33N 47°35' W 122°21'0 0.0
2015-Jul-10 21:33N 47°35' W 122°21'9 9.1
2015-Jul-10 20:33N 47°44' W 122°26'1312.7
2015-Jul-10 19:33N 47°56' W 122°20'6 5.6
2015-Jul-10 18:33N 47°59' W 122°13'0 0.0
2015-Jul-10 17:33N 47°59' W 122°13'  
Track history (hours):
 
Tides and Currents Weather Stations Pressure Air Temp Water Temp Dewpoint Dewpoint Depression Visibility Wind Speed Wind Dir Waves Ship Positions

Polar Ranger

Owner: Dunlap Towing Co., LaConner, WA. More information available from US FCC via Universal Licensing System and Coast Guard Vessel Documentation Center.

Last reported at 2015-Jul-12 01:31 UTC. Time now 2015-Jul-31 13:27 UTC.
Position N 49°23' W 126°57'.
Warning: this ship's position is 19 days out of date.

Type: Tow > 200 m length. MMSI: 367090860.

Date/timePositionNaut miles runAvg speedWind from/ knotsBaromVisibWave heightAir tempDewpointWater temp
2015-Jul-12 01:31N 49°23' W 126°57'10 9.7
2015-Jul-12 00:32N 49°17' W 126°45'1010.1
2015-Jul-11 23:31N 49°10' W 126°33'1010.4
2015-Jul-11 22:32N 49°04' W 126°20'1010.5
2015-Jul-11 21:33N 48°58' W 126°08'1010.4
2015-Jul-11 20:33N 48°52' W 125°55'1010.0
2015-Jul-11 19:33N 48°46' W 125°43'10 9.7
2015-Jul-11 18:33N 48°42' W 125°29'10 9.7
2015-Jul-11 17:29N 48°38' W 125°15'9 9.8
2015-Jul-11 16:31N 48°35' W 125°02'9 9.5
2015-Jul-11 15:33N 48°32' W 124°48'1010.4
2015-Jul-11 14:33N 48°28' W 124°34'1111.0
2015-Jul-11 13:33N 48°24' W 124°18'1111.3
2015-Jul-11 12:33N 48°20' W 124°03'1110.4
2015-Jul-11 11:31N 48°17' W 123°47'1212.0
2015-Jul-11 10:33N 48°15' W 123°30'1111.3
2015-Jul-11 09:33N 48°13' W 123°13'1010.4
2015-Jul-11 08:33N 48°12' W 122°58'17 8.3
2015-Jul-11 06:32N 48°02' W 122°38'8 8.5
2015-Jul-11 05:33N 47°56' W 122°30'10 9.6
2015-Jul-11 04:33N 47°47' W 122°26'9 9.1
2015-Jul-11 03:33N 47°38' W 122°24'2 2.5
2015-Jul-11 02:33N 47°36' W 122°22'1 0.6
2015-Jul-11 01:33N 47°35' W 122°21'0 0.0
2015-Jul-11 00:33N 47°35' W 122°21'0 0.0
2015-Jul-10 23:33N 47°35' W 122°21'0 0.0
2015-Jul-10 22:33N 47°35' W 122°21'0 0.0
2015-Jul-10 21:33N 47°35' W 122°21'9 9.1
2015-Jul-10 20:33N 47°44' W 122°26'1312.7
2015-Jul-10 19:33N 47°56' W 122°20'6 5.6
2015-Jul-10 18:33N 47°59' W 122°13'0 0.0
2015-Jul-10 17:33N 47°59' W 122°13'  

Dump ship's entire track history